createdAt,value
2018-03-21T00:00:04.533Z,84.20
2018-03-21T00:01:04.488Z,83.64
2018-03-21T00:02:04.429Z,83.64
2018-03-21T00:03:04.415Z,84.01
2018-03-21T00:04:04.340Z,84.01
2018-03-21T00:05:04.290Z,84.54
2018-03-21T00:06:04.249Z,83.97
2018-03-21T00:07:04.255Z,83.92
2018-03-21T00:08:04.156Z,84.11
2018-03-21T00:09:04.134Z,84.11
2018-03-21T00:10:04.068Z,84.30
2018-03-21T00:11:04.014Z,84.58
2018-03-21T00:12:03.967Z,84.26
2018-03-21T00:13:03.924Z,84.16
2018-03-21T00:14:03.899Z,84.64
2018-03-21T00:15:03.823Z,84.45
2018-03-21T00:16:03.789Z,83.88
2018-03-21T00:17:03.734Z,84.54
2018-03-21T00:18:03.687Z,84.64
2018-03-21T00:19:03.711Z,84.54
2018-03-21T00:20:03.615Z,84.64
2018-03-21T00:21:03.545Z,83.83
2018-03-21T00:22:03.492Z,84.39
2018-03-21T00:23:03.455Z,84.20
2018-03-21T00:24:03.409Z,84.58
2018-03-21T00:25:03.362Z,84.49
2018-03-21T00:26:03.339Z,84.49
2018-03-21T00:27:03.270Z,84.30
2018-03-21T00:28:03.226Z,84.26
2018-03-21T00:29:03.168Z,84.30
2018-03-21T00:30:03.165Z,84.58
2018-03-21T00:31:03.116Z,84.39
2018-03-21T00:32:03.033Z,84.58
2018-03-21T00:33:02.982Z,84.45
2018-03-21T00:34:02.943Z,85.24
2018-03-21T00:35:02.896Z,85.81
2018-03-21T00:36:02.867Z,85.81
2018-03-21T00:37:02.794Z,85.05
2018-03-21T00:38:02.748Z,85.43
2018-03-21T00:39:02.711Z,85.15
2018-03-21T00:40:02.660Z,85.15
2018-03-21T00:41:02.647Z,84.96
2018-03-21T00:42:02.563Z,85.34
2018-03-21T00:43:02.517Z,84.49
2018-03-21T00:44:02.468Z,84.58
2018-03-21T00:45:02.427Z,85.05
2018-03-21T00:46:02.382Z,84.96
2018-03-21T00:47:02.357Z,84.77
2018-03-21T00:48:02.282Z,84.58
2018-03-21T00:49:02.239Z,84.58
2018-03-21T00:50:02.245Z,85.05
2018-03-21T00:51:02.152Z,84.86
2018-03-21T00:52:02.127Z,85.11
2018-03-21T00:53:02.054Z,85.05
2018-03-21T00:54:01.997Z,85.49
2018-03-21T00:55:01.951Z,85.86
2018-03-21T00:56:01.913Z,86.33
2018-03-21T00:57:01.865Z,86.62
2018-03-21T00:58:01.842Z,86.05
2018-03-21T00:59:01.772Z,86.15
2018-03-21T01:00:01.731Z,86.24
2018-03-21T01:01:01.673Z,87.09
2018-03-21T01:02:01.625Z,87.28
2018-03-21T01:03:01.619Z,87.18
2018-03-21T01:04:01.532Z,87.56
2018-03-21T01:05:01.489Z,87.94
2018-03-21T01:06:01.442Z,89.07
2018-03-21T01:07:01.404Z,89.54
2018-03-21T01:08:01.378Z,90.49
2018-03-21T01:09:01.322Z,90.02
2018-03-21T01:10:01.259Z,90.49
2018-03-21T01:11:01.203Z,90.77
2018-03-21T01:12:01.155Z,91.15
2018-03-21T01:13:01.114Z,91.34
2018-03-21T01:14:01.087Z,91.34
2018-03-21T01:15:01.014Z,91.15
2018-03-21T01:16:00.968Z,91.86
2018-03-21T01:17:00.946Z,92.38
2018-03-21T01:18:00.878Z,92.61
2018-03-21T01:19:00.834Z,92.33
2018-03-21T01:20:00.808Z,92.61
2018-03-21T01:21:00.735Z,93.56
2018-03-21T01:22:00.687Z,94.22
2018-03-21T01:23:00.657Z,94.03
2018-03-21T01:24:00.589Z,94.32
2018-03-21T01:25:00.573Z,93.94
2018-03-21T01:26:00.504Z,94.03
2018-03-21T01:27:00.452Z,94.03
2018-03-21T01:28:00.402Z,93.75
2018-03-21T01:29:00.348Z,93.75
2018-03-21T01:30:00.331Z,93.37
2018-03-21T01:31:00.284Z,93.75
2018-03-21T01:32:00.219Z,93.09
2018-03-21T01:33:00.159Z,93.18
2018-03-21T01:34:00.127Z,93.18
2018-03-21T01:35:00.079Z,93.84
2018-03-21T01:36:00.034Z,94.70
2018-03-21T01:37:00.039Z,94.51
2018-03-21T01:37:59.937Z,94.89
2018-03-21T01:38:59.881Z,94.98
2018-03-21T01:39:59.838Z,94.79
2018-03-21T01:40:59.790Z,94.70
2018-03-21T01:41:59.745Z,94.60
2018-03-21T01:42:59.728Z,94.98
2018-03-21T01:43:59.656Z,94.89
2018-03-21T01:44:59.616Z,94.70
2018-03-21T01:45:59.548Z,94.70
2018-03-21T01:46:59.528Z,94.22
2018-03-21T01:47:59.478Z,93.94
2018-03-21T01:48:59.416Z,93.94
2018-03-21T01:49:59.390Z,93.66
2018-03-21T01:50:59.320Z,93.66
2018-03-21T01:51:59.288Z,93.94
2018-03-21T01:52:59.217Z,94.13
2018-03-21T01:53:59.197Z,94.89
2018-03-21T01:54:59.121Z,94.98
2018-03-21T01:55:59.081Z,95.26
2018-03-21T01:56:59.029Z,95.73
2018-03-21T01:57:58.980Z,95.83
2018-03-21T01:58:58.968Z,95.64
2018-03-21T01:59:58.894Z,95.45
2018-03-21T02:00:58.842Z,94.98
2018-03-21T02:01:58.796Z,95.54
2018-03-21T02:02:58.757Z,95.45
2018-03-21T02:03:58.737Z,95.83
2018-03-21T02:04:58.643Z,95.17
2018-03-21T02:05:58.614Z,95.36
2018-03-21T02:06:58.553Z,95.45
2018-03-21T02:07:58.503Z,95.64
2018-03-21T02:08:58.458Z,95.83
2018-03-21T02:09:58.433Z,95.83
2018-03-21T02:10:58.365Z,96.20
2018-03-21T02:11:58.326Z,95.83
2018-03-21T02:12:58.267Z,96.01
2018-03-21T02:13:58.222Z,95.26
2018-03-21T02:14:58.219Z,95.45
2018-03-21T02:15:58.128Z,95.45
2018-03-21T02:16:58.075Z,95.45
2018-03-21T02:17:58.028Z,95.36
2018-03-21T02:18:57.985Z,95.83
2018-03-21T02:19:57.958Z,95.73
2018-03-21T02:20:57.885Z,95.83
2018-03-21T02:21:57.845Z,96.20
2018-03-21T02:22:57.798Z,96.39
2018-03-21T02:23:57.741Z,96.39
2018-03-21T02:24:57.692Z,96.01
2018-03-21T02:25:57.694Z,95.73
2018-03-21T02:26:57.599Z,95.83
2018-03-21T02:27:57.553Z,96.20
2018-03-21T02:28:57.507Z,95.83
2018-03-21T02:29:57.456Z,95.45
2018-03-21T02:30:57.403Z,94.98
2018-03-21T02:31:57.390Z,94.79
2018-03-21T02:32:57.331Z,96.11
2018-03-21T02:33:57.272Z,96.49
2018-03-21T02:34:57.220Z,96.96
2018-03-21T02:35:57.189Z,96.68
2018-03-21T02:36:57.158Z,96.96
2018-03-21T02:37:57.085Z,97.15
2018-03-21T02:38:57.024Z,97.15
2018-03-21T02:39:56.973Z,96.72
2018-03-21T02:40:56.933Z,97.15
2018-03-21T02:41:56.877Z,97.34
2018-03-21T02:42:56.868Z,96.20
2018-03-21T02:43:56.783Z,96.20
2018-03-21T02:44:56.739Z,97.05
2018-03-21T02:45:56.706Z,97.00
2018-03-21T02:46:56.647Z,96.77
2018-03-21T02:47:56.599Z,97.24
2018-03-21T02:48:56.573Z,97.15
2018-03-21T02:49:56.494Z,97.15
2018-03-21T02:50:56.457Z,97.15
2018-03-21T02:51:56.394Z,97.34
2018-03-21T02:52:56.356Z,96.77
2018-03-21T02:53:56.337Z,96.96
2018-03-21T02:54:56.261Z,96.86
2018-03-21T02:55:56.210Z,97.15
2018-03-21T02:56:56.160Z,97.15
2018-03-21T02:57:56.122Z,96.39
2018-03-21T02:58:56.063Z,96.30
2018-03-21T02:59:56.044Z,96.20
2018-03-21T03:00:55.973Z,96.11
2018-03-21T03:01:55.925Z,96.96
2018-03-21T03:02:55.877Z,97.24
2018-03-21T03:03:55.830Z,96.77
2018-03-21T03:04:55.812Z,97.10
2018-03-21T03:05:55.730Z,97.81
2018-03-21T03:06:55.684Z,98.04
2018-03-21T03:07:55.629Z,98.47
2018-03-21T03:08:55.595Z,98.47
2018-03-21T03:09:55.534Z,98.94
2018-03-21T03:10:55.516Z,98.19
2018-03-21T03:11:55.448Z,98.47
2018-03-21T03:12:55.399Z,98.28
2018-03-21T03:13:55.343Z,98.10
2018-03-21T03:14:55.298Z,98.00
2018-03-21T03:15:55.273Z,98.33
2018-03-21T03:16:55.201Z,98.47
2018-03-21T03:17:55.151Z,98.04
2018-03-21T03:18:55.107Z,98.42
2018-03-21T03:19:55.064Z,98.23
2018-03-21T03:20:55.011Z,98.23
2018-03-21T03:21:54.993Z,98.23
2018-03-21T03:22:54.909Z,98.23
2018-03-21T03:23:54.870Z,98.33
2018-03-21T03:24:54.813Z,98.23
2018-03-21T03:25:54.775Z,98.42
2018-03-21T03:26:54.720Z,98.23
2018-03-21T03:27:54.704Z,98.23
2018-03-21T03:28:54.623Z,98.10
2018-03-21T03:29:54.579Z,98.57
2018-03-21T03:30:54.530Z,98.38
2018-03-21T03:31:54.498Z,98.10
2018-03-21T03:32:54.436Z,98.57
2018-03-21T03:33:54.413Z,97.53
2018-03-21T03:34:54.343Z,97.15
2018-03-21T03:35:54.291Z,96.96
2018-03-21T03:36:54.241Z,97.15
2018-03-21T03:37:54.188Z,97.43
2018-03-21T03:38:54.174Z,97.15
2018-03-21T03:39:54.093Z,97.24
2018-03-21T03:40:54.047Z,96.96
2018-03-21T03:41:54.002Z,97.24
2018-03-21T03:42:53.953Z,96.77
2018-03-21T03:43:53.910Z,97.24
2018-03-21T03:44:53.873Z,97.62
2018-03-21T03:45:53.813Z,97.62
2018-03-21T03:46:53.762Z,97.62
2018-03-21T03:47:53.709Z,97.91
2018-03-21T03:48:53.665Z,97.91
2018-03-21T03:49:53.640Z,97.53
2018-03-21T03:50:53.579Z,97.05
2018-03-21T03:51:53.527Z,96.86
2018-03-21T03:52:53.472Z,96.68
2018-03-21T03:53:53.432Z,96.77
2018-03-21T03:54:53.379Z,97.24
2018-03-21T03:55:53.351Z,96.96
2018-03-21T03:56:53.278Z,97.15
2018-03-21T03:57:53.247Z,97.53
2018-03-21T03:58:53.193Z,97.81
2018-03-21T03:59:53.131Z,97.53
2018-03-21T04:00:53.115Z,97.81
2018-03-21T04:01:53.043Z,97.85
2018-03-21T04:02:53.006Z,97.85
2018-03-21T04:03:52.944Z,97.57
2018-03-21T04:04:52.894Z,97.85
2018-03-21T04:05:52.855Z,98.19
2018-03-21T04:06:52.834Z,98.14
2018-03-21T04:07:52.752Z,97.48
2018-03-21T04:08:52.706Z,97.85
2018-03-21T04:09:52.658Z,97.38
2018-03-21T04:10:52.616Z,97.19
2018-03-21T04:11:52.564Z,97.19
2018-03-21T04:12:52.536Z,97.10
2018-03-21T04:13:52.463Z,97.19
2018-03-21T04:14:52.413Z,97.00
2018-03-21T04:15:52.369Z,96.91
2018-03-21T04:16:52.329Z,96.91
2018-03-21T04:17:52.311Z,97.19
2018-03-21T04:18:52.233Z,97.76
2018-03-21T04:19:52.175Z,97.67
2018-03-21T04:20:52.135Z,98.04
2018-03-21T04:21:52.074Z,97.76
2018-03-21T04:22:52.034Z,98.04
2018-03-21T04:23:52.013Z,97.67
2018-03-21T04:24:51.938Z,98.42
2018-03-21T04:25:51.890Z,99.27
2018-03-21T04:26:51.837Z,99.37
2018-03-21T04:27:51.789Z,99.99
2018-03-21T04:28:51.738Z,99.99
2018-03-21T04:29:51.723Z,99.99
2018-03-21T04:30:51.652Z,99.99
2018-03-21T04:31:51.599Z,99.99
2018-03-21T04:32:51.554Z,99.93
2018-03-21T04:33:51.503Z,99.93
2018-03-21T04:34:51.448Z,99.65
2018-03-21T04:35:51.434Z,99.84
2018-03-21T04:36:51.359Z,99.74
2018-03-21T04:37:51.309Z,99.74
2018-03-21T04:38:51.261Z,99.84
2018-03-21T04:39:51.223Z,99.99
2018-03-21T04:40:51.198Z,99.84
2018-03-21T04:41:51.110Z,99.74
2018-03-21T04:42:51.069Z,99.74
2018-03-21T04:43:51.019Z,99.84
2018-03-21T04:44:50.978Z,99.84
2018-03-21T04:45:50.923Z,99.99
2018-03-21T04:46:50.906Z,99.99
2018-03-21T04:47:50.836Z,99.99
2018-03-21T04:48:50.771Z,99.99
2018-03-21T04:49:50.730Z,99.99
2018-03-21T04:50:50.683Z,99.93
2018-03-21T04:51:50.628Z,99.55
2018-03-21T04:52:50.612Z,99.65
2018-03-21T04:53:50.539Z,99.93
2018-03-21T04:54:50.491Z,99.84
2018-03-21T04:55:50.450Z,99.99
2018-03-21T04:56:50.393Z,99.84
2018-03-21T04:57:50.367Z,99.99
2018-03-21T04:58:50.296Z,99.99
2018-03-21T04:59:50.248Z,99.99
2018-03-21T05:00:50.196Z,99.99
2018-03-21T05:01:50.179Z,99.99
2018-03-21T05:02:50.108Z,99.99
2018-03-21T05:03:50.088Z,99.99
2018-03-21T05:04:50.011Z,99.99
2018-03-21T05:05:49.962Z,99.99
2018-03-21T05:06:49.909Z,99.99
2018-03-21T05:07:49.874Z,99.99
2018-03-21T05:08:49.813Z,99.99
2018-03-21T05:09:49.790Z,99.99
2018-03-21T05:10:49.720Z,99.99
2018-03-21T05:11:49.664Z,99.99
2018-03-21T05:12:49.626Z,99.99
2018-03-21T05:13:49.570Z,99.99
2018-03-21T05:14:49.556Z,99.99
2018-03-21T05:15:49.476Z,99.99
2018-03-21T05:16:49.430Z,99.99
2018-03-21T05:17:49.376Z,99.99
2018-03-21T05:18:49.333Z,99.99
2018-03-21T05:19:49.281Z,99.99
2018-03-21T05:20:49.259Z,99.74
2018-03-21T05:21:49.195Z,99.55
2018-03-21T05:22:49.137Z,99.74
2018-03-21T05:23:49.085Z,99.93
2018-03-21T05:24:49.060Z,99.99
2018-03-21T05:25:48.993Z,99.99
2018-03-21T05:26:48.979Z,99.99
2018-03-21T05:27:48.903Z,99.99
2018-03-21T05:28:48.841Z,99.99
2018-03-21T05:29:48.802Z,99.99
2018-03-21T05:30:48.744Z,99.99
2018-03-21T05:31:48.710Z,99.99
2018-03-21T05:32:48.680Z,99.99
2018-03-21T05:33:48.600Z,99.99
2018-03-21T05:34:48.564Z,99.99
2018-03-21T05:35:48.511Z,99.99
2018-03-21T05:36:48.470Z,99.99
2018-03-21T05:37:48.407Z,99.99
2018-03-21T05:38:48.400Z,99.99
2018-03-21T05:39:48.321Z,99.99
2018-03-21T05:40:48.267Z,99.99
2018-03-21T05:41:48.220Z,99.99
2018-03-21T05:42:48.180Z,99.99
2018-03-21T05:43:48.123Z,99.99
2018-03-21T05:44:48.102Z,99.99
2018-03-21T05:45:48.037Z,99.99
2018-03-21T05:46:47.998Z,99.99
2018-03-21T05:47:47.930Z,99.99
2018-03-21T05:48:47.884Z,99.99
2018-03-21T05:49:47.864Z,99.99
2018-03-21T05:50:47.779Z,99.99
2018-03-21T05:51:47.735Z,99.99
2018-03-21T05:52:47.701Z,99.99
2018-03-21T05:53:47.649Z,99.99
2018-03-21T05:54:47.620Z,99.99
2018-03-21T05:55:47.540Z,99.99
2018-03-21T05:56:47.573Z,99.99
2018-03-21T05:57:47.448Z,99.99
2018-03-21T05:58:47.404Z,99.99
2018-03-21T05:59:47.356Z,99.79
2018-03-21T06:00:47.329Z,99.79
2018-03-21T06:01:47.257Z,99.99
2018-03-21T06:02:47.206Z,99.04
2018-03-21T06:03:47.168Z,99.51
2018-03-21T06:04:47.111Z,99.41
2018-03-21T06:05:47.064Z,99.41
2018-03-21T06:06:47.036Z,99.75
2018-03-21T06:07:46.974Z,98.80
2018-03-21T06:08:46.954Z,99.27
2018-03-21T06:09:46.892Z,98.61
2018-03-21T06:10:46.820Z,98.61
2018-03-21T06:11:46.811Z,98.71
2018-03-21T06:12:46.734Z,98.61
2018-03-21T06:13:46.682Z,98.71
2018-03-21T06:14:46.634Z,98.61
2018-03-21T06:15:46.637Z,98.61
2018-03-21T06:16:46.544Z,98.80
2018-03-21T06:17:46.517Z,98.61
2018-03-21T06:18:46.446Z,98.14
2018-03-21T06:19:46.391Z,98.33
2018-03-21T06:20:46.351Z,97.96
2018-03-21T06:21:46.300Z,98.33
2018-03-21T06:22:46.255Z,97.58
2018-03-21T06:23:46.242Z,97.15
2018-03-21T06:24:46.162Z,95.78
2018-03-21T06:25:46.120Z,92.57
2018-03-21T06:26:46.066Z,89.69
2018-03-21T06:27:46.015Z,87.60
2018-03-21T06:28:45.994Z,87.93
2018-03-21T06:29:45.927Z,89.40
2018-03-21T06:30:45.879Z,91.39
2018-03-21T06:31:45.838Z,92.71
2018-03-21T06:32:45.784Z,94.51
2018-03-21T06:33:45.769Z,95.87
2018-03-21T06:34:45.688Z,96.91
2018-03-21T06:35:45.649Z,97.86
2018-03-21T06:36:45.603Z,98.90
2018-03-21T06:37:45.559Z,99.08
2018-03-21T06:38:45.505Z,99.99
2018-03-21T06:39:45.491Z,99.99
2018-03-21T06:40:45.413Z,99.99
2018-03-21T06:41:45.361Z,99.99
2018-03-21T06:42:45.323Z,99.99
2018-03-21T06:43:45.272Z,99.99
2018-03-21T06:44:45.223Z,99.99
2018-03-21T06:45:45.216Z,99.99
2018-03-21T06:46:45.142Z,99.99
2018-03-21T06:47:45.088Z,99.33
2018-03-21T06:48:45.043Z,98.85
2018-03-21T06:49:45.001Z,98.14
2018-03-21T06:50:44.957Z,97.11
2018-03-21T06:51:44.925Z,96.92
2018-03-21T06:52:44.858Z,97.11
2018-03-21T06:53:44.807Z,96.26
2018-03-21T06:54:44.764Z,95.17
2018-03-21T06:55:44.721Z,94.70
2018-03-21T06:56:44.703Z,94.32
2018-03-21T06:57:44.633Z,93.28
2018-03-21T06:58:44.592Z,92.71
2018-03-21T06:59:44.539Z,93.66
2018-03-21T07:00:44.490Z,94.13
2018-03-21T07:01:44.449Z,94.51
2018-03-21T07:02:44.421Z,94.74
2018-03-21T07:03:44.354Z,94.93
2018-03-21T07:04:44.304Z,95.78
2018-03-21T07:05:44.270Z,95.78
2018-03-21T07:06:44.220Z,96.64
2018-03-21T07:07:44.202Z,97.11
2018-03-21T07:08:44.128Z,97.11
2018-03-21T07:09:44.151Z,98.62
2018-03-21T07:10:44.045Z,98.24
2018-03-21T07:11:43.988Z,98.24
2018-03-21T07:12:43.948Z,98.71
2018-03-21T07:13:43.923Z,99.28
2018-03-21T07:14:43.866Z,99.66
2018-03-21T07:15:43.810Z,99.09
2018-03-21T07:16:43.796Z,97.58
2018-03-21T07:17:43.717Z,97.77
2018-03-21T07:18:43.671Z,97.49
2018-03-21T07:19:43.656Z,97.96
2018-03-21T07:20:43.591Z,98.71
2018-03-21T07:21:43.556Z,99.76
2018-03-21T07:22:43.496Z,99.99
2018-03-21T07:23:43.452Z,99.57
2018-03-21T07:24:43.431Z,99.85
2018-03-21T07:25:43.361Z,99.99
2018-03-21T07:26:43.317Z,99.99
2018-03-21T07:27:43.263Z,99.99
2018-03-21T07:28:43.227Z,99.99
2018-03-21T07:29:43.180Z,99.99
2018-03-21T07:30:43.154Z,99.99
2018-03-21T07:31:43.092Z,99.99
2018-03-21T07:32:43.036Z,99.99
2018-03-21T07:33:43.005Z,99.99
2018-03-21T07:34:42.968Z,99.99
2018-03-21T07:35:42.908Z,99.99
2018-03-21T07:36:42.884Z,99.99
2018-03-21T07:37:42.816Z,99.99
2018-03-21T07:38:42.777Z,99.99
2018-03-21T07:39:42.723Z,99.99
2018-03-21T07:40:42.681Z,99.99
2018-03-21T07:41:42.659Z,99.99
2018-03-21T07:42:42.594Z,99.99
2018-03-21T07:43:42.550Z,99.99
2018-03-21T07:44:42.503Z,99.99
2018-03-21T07:45:42.464Z,99.99
2018-03-21T07:46:42.410Z,99.99
2018-03-21T07:47:42.397Z,99.99
2018-03-21T07:48:42.327Z,99.99
2018-03-21T07:49:42.273Z,99.99
2018-03-21T07:50:42.229Z,99.99
2018-03-21T07:51:42.193Z,99.99
2018-03-21T07:52:42.144Z,99.99
2018-03-21T07:53:42.124Z,99.99
2018-03-21T07:54:42.052Z,99.99
2018-03-21T07:55:42.012Z,99.99
2018-03-21T07:56:41.968Z,99.99
2018-03-21T07:57:41.915Z,99.99
2018-03-21T07:58:41.874Z,99.99
2018-03-21T07:59:41.852Z,99.99
2018-03-21T08:00:41.788Z,99.99
2018-03-21T08:01:41.738Z,99.99
2018-03-21T08:02:41.693Z,99.99
2018-03-21T08:03:41.648Z,99.99
2018-03-21T08:04:41.633Z,99.99
2018-03-21T08:05:41.560Z,99.99
2018-03-21T08:06:41.525Z,99.99
2018-03-21T08:07:41.471Z,99.99
2018-03-21T08:08:41.468Z,99.99
2018-03-21T08:09:41.374Z,99.99
2018-03-21T08:10:41.371Z,99.99
2018-03-21T08:11:41.298Z,99.99
2018-03-21T08:12:41.254Z,99.99
2018-03-21T08:13:41.205Z,99.99
2018-03-21T08:14:41.155Z,99.99
2018-03-21T08:15:41.139Z,99.99
2018-03-21T08:16:41.061Z,99.99
2018-03-21T08:17:41.031Z,99.99
2018-03-21T08:18:40.976Z,99.99
2018-03-21T08:19:40.994Z,99.99
2018-03-21T08:20:40.889Z,99.99
2018-03-21T08:21:40.867Z,99.99
2018-03-21T08:22:40.794Z,99.99
2018-03-21T08:23:40.759Z,99.99
2018-03-21T08:24:40.715Z,99.99
2018-03-21T08:25:40.671Z,99.99
2018-03-21T08:26:40.656Z,99.99
2018-03-21T08:27:40.583Z,99.99
2018-03-21T08:28:40.530Z,99.99
2018-03-21T08:29:40.500Z,99.99
2018-03-21T08:30:40.448Z,99.99
2018-03-21T08:31:40.393Z,99.99
2018-03-21T08:32:40.376Z,99.99
2018-03-21T08:33:40.307Z,99.99
2018-03-21T08:34:40.266Z,99.99
2018-03-21T08:35:40.224Z,99.99
2018-03-21T08:36:40.173Z,99.99
2018-03-21T08:37:40.921Z,99.99
2018-03-21T08:38:40.893Z,99.99
2018-03-21T08:39:40.045Z,99.99
2018-03-21T08:40:40.002Z,99.99
2018-03-21T08:41:39.957Z,99.99
2018-03-21T08:42:39.915Z,99.99
2018-03-21T08:43:39.886Z,99.99
2018-03-21T08:44:39.835Z,99.99
2018-03-21T08:45:39.771Z,99.99
2018-03-21T08:46:39.733Z,99.99
2018-03-21T08:47:39.690Z,99.99
2018-03-21T08:48:39.673Z,99.99
2018-03-21T08:49:39.645Z,99.99
2018-03-21T08:50:39.560Z,99.99
2018-03-21T08:51:39.512Z,99.99
2018-03-21T08:52:39.463Z,99.99
2018-03-21T08:53:39.444Z,99.99
2018-03-21T08:54:39.389Z,99.99
2018-03-21T08:55:39.356Z,99.99
2018-03-21T08:56:39.342Z,99.99
2018-03-21T08:57:39.254Z,99.99
2018-03-21T08:58:39.194Z,99.99
2018-03-21T08:59:39.189Z,99.99
2018-03-21T09:00:39.108Z,99.99
2018-03-21T09:01:39.082Z,99.99
2018-03-21T09:02:39.029Z,99.99
2018-03-21T09:03:38.996Z,99.99
2018-03-21T09:04:39.001Z,99.99
2018-03-21T09:05:38.903Z,99.99
2018-03-21T09:06:38.880Z,99.99
2018-03-21T09:07:38.828Z,99.99
2018-03-21T09:08:38.784Z,99.99
2018-03-21T09:09:38.760Z,99.99
2018-03-21T09:10:38.680Z,99.99
2018-03-21T09:11:38.623Z,99.99
2018-03-21T09:12:38.641Z,99.52
2018-03-21T09:13:38.534Z,99.62
2018-03-21T09:14:38.529Z,99.52
2018-03-21T09:15:38.455Z,99.71
2018-03-21T09:16:38.412Z,99.52
2018-03-21T09:17:38.366Z,99.71
2018-03-21T09:18:38.318Z,99.52
2018-03-21T09:19:38.284Z,99.43
2018-03-21T09:20:38.258Z,98.77
2018-03-21T09:21:38.197Z,98.77
2018-03-21T09:22:38.156Z,98.96
2018-03-21T09:23:38.099Z,98.96
2018-03-21T09:24:38.063Z,99.24
2018-03-21T09:25:38.023Z,99.15
2018-03-21T09:26:37.996Z,99.15
2018-03-21T09:27:37.929Z,99.71
2018-03-21T09:28:37.880Z,99.52
2018-03-21T09:29:37.849Z,99.71
2018-03-21T09:30:37.817Z,99.43
2018-03-21T09:31:37.778Z,99.48
2018-03-21T09:32:37.715Z,99.19
2018-03-21T09:33:37.679Z,99.10
2018-03-21T09:34:37.632Z,98.34
2018-03-21T09:35:37.583Z,98.34
2018-03-21T09:36:37.562Z,98.34
2018-03-21T09:37:37.494Z,98.44
2018-03-21T09:38:37.462Z,98.34
2018-03-21T09:39:37.416Z,98.44
2018-03-21T09:40:37.366Z,98.34
2018-03-21T09:41:37.351Z,97.96
2018-03-21T09:42:37.281Z,97.20
2018-03-21T09:43:37.229Z,97.30
2018-03-21T09:44:37.201Z,96.64
2018-03-21T09:45:37.146Z,96.45
2018-03-21T09:46:37.107Z,96.35
2018-03-21T09:47:37.092Z,96.35
2018-03-21T09:48:37.060Z,96.35
2018-03-21T09:49:36.983Z,96.07
2018-03-21T09:50:36.934Z,96.26
2018-03-21T09:51:36.900Z,95.97
2018-03-21T09:52:36.845Z,95.40
2018-03-21T09:53:36.830Z,96.16
2018-03-21T09:54:36.769Z,97.30
2018-03-21T09:55:36.717Z,97.30
2018-03-21T09:56:36.693Z,96.64
2018-03-21T09:57:36.632Z,97.39
2018-03-21T09:58:36.626Z,97.11
2018-03-21T09:59:36.554Z,97.39
2018-03-21T10:00:36.560Z,98.06
2018-03-21T10:01:36.464Z,97.30
2018-03-21T10:02:36.420Z,98.15
2018-03-21T10:03:36.376Z,97.96
2018-03-21T10:04:36.374Z,97.68
2018-03-21T10:05:36.298Z,97.87
2018-03-21T10:06:36.256Z,97.20
2018-03-21T10:07:36.209Z,97.20
2018-03-21T10:08:36.167Z,97.02
2018-03-21T10:09:36.121Z,96.26
2018-03-21T10:10:36.104Z,96.73
2018-03-21T10:11:36.042Z,96.73
2018-03-21T10:12:35.988Z,96.54
2018-03-21T10:13:35.955Z,97.02
2018-03-21T10:14:35.907Z,96.73
2018-03-21T10:15:35.889Z,97.02
2018-03-21T10:16:35.826Z,96.45
2018-03-21T10:17:35.781Z,96.35
2018-03-21T10:18:35.739Z,96.54
2018-03-21T10:19:35.695Z,96.26
2018-03-21T10:20:35.664Z,95.88
2018-03-21T10:21:35.635Z,95.78
2018-03-21T10:22:35.562Z,96.07
2018-03-21T10:23:35.527Z,95.78
2018-03-21T10:24:35.493Z,95.64
2018-03-21T10:25:35.445Z,95.64
2018-03-21T10:26:35.412Z,95.50
2018-03-21T10:27:35.392Z,95.59
2018-03-21T10:28:35.317Z,95.88
2018-03-21T10:29:35.328Z,95.88
2018-03-21T10:30:35.239Z,96.07
2018-03-21T10:31:35.210Z,96.73
2018-03-21T10:32:35.149Z,96.83
2018-03-21T10:33:35.171Z,97.30
2018-03-21T10:34:35.088Z,96.73
2018-03-21T10:35:35.008Z,96.73
2018-03-21T10:36:34.990Z,96.73
2018-03-21T10:37:34.974Z,97.02
2018-03-21T10:38:34.973Z,97.11
2018-03-21T10:39:34.868Z,96.64
2018-03-21T10:40:34.836Z,96.16
2018-03-21T10:41:34.749Z,95.78
2018-03-21T10:42:34.705Z,95.50
2018-03-21T10:43:34.690Z,96.45
2018-03-21T10:44:34.629Z,97.02
2018-03-21T10:45:34.604Z,96.64
2018-03-21T10:46:34.544Z,96.07
2018-03-21T10:47:34.505Z,96.45
2018-03-21T10:48:34.482Z,96.45
2018-03-21T10:49:34.423Z,96.07
2018-03-21T10:50:34.374Z,96.35
2018-03-21T10:51:34.320Z,96.35
2018-03-21T10:52:38.913Z,96.64
2018-03-21T10:53:34.274Z,96.16
2018-03-21T10:54:34.239Z,96.07
2018-03-21T10:55:34.164Z,96.35
2018-03-21T10:56:34.100Z,96.35
2018-03-21T10:57:34.070Z,96.07
2018-03-21T10:58:34.022Z,96.07
2018-03-21T10:59:34.012Z,95.69
2018-03-21T11:00:33.944Z,96.45
2018-03-21T11:01:33.904Z,97.02
2018-03-21T11:02:33.845Z,96.45
2018-03-21T11:03:33.821Z,96.73
2018-03-21T11:04:33.765Z,97.30
2018-03-21T11:05:33.763Z,97.20
2018-03-21T11:06:33.755Z,96.26
2018-03-21T11:07:33.644Z,96.26
2018-03-21T11:08:33.617Z,96.02
2018-03-21T11:09:33.561Z,95.55
2018-03-21T11:10:33.532Z,95.55
2018-03-21T11:11:33.461Z,96.02
2018-03-21T11:12:33.424Z,96.12
2018-03-21T11:13:33.395Z,95.17
2018-03-21T11:14:33.335Z,95.74
2018-03-21T11:15:33.299Z,94.98
2018-03-21T11:16:33.274Z,95.26
2018-03-21T11:17:33.205Z,95.55
2018-03-21T11:18:33.169Z,94.79
2018-03-21T11:19:33.114Z,94.93
2018-03-21T11:20:33.081Z,96.26
2018-03-21T11:21:33.076Z,97.02
2018-03-21T11:22:32.992Z,97.30
2018-03-21T11:23:32.947Z,96.73
2018-03-21T11:24:32.904Z,96.83
2018-03-21T11:25:32.860Z,96.64
2018-03-21T11:26:32.813Z,96.64
2018-03-21T11:27:32.809Z,96.73
2018-03-21T11:28:32.738Z,96.83
2018-03-21T11:29:32.697Z,96.64
2018-03-21T11:30:32.644Z,96.73
2018-03-21T11:31:32.619Z,97.20
2018-03-21T11:32:32.579Z,96.54
2018-03-21T11:33:32.523Z,96.54
2018-03-21T11:34:32.482Z,95.93
2018-03-21T11:35:32.434Z,95.74
2018-03-21T11:36:32.392Z,96.21
2018-03-21T11:37:32.393Z,96.12
2018-03-21T11:38:32.324Z,95.64
2018-03-21T11:39:32.259Z,95.55
2018-03-21T11:40:32.216Z,95.17
2018-03-21T11:41:32.166Z,94.98
2018-03-21T11:42:32.163Z,94.60
2018-03-21T11:43:32.104Z,94.42
2018-03-21T11:44:32.050Z,93.89
2018-03-21T11:45:32.019Z,93.80
2018-03-21T11:46:31.964Z,93.32
2018-03-21T11:47:31.918Z,92.47
2018-03-21T11:48:31.933Z,92.19
2018-03-21T11:49:31.849Z,91.52
2018-03-21T11:50:31.783Z,90.62
2018-03-21T11:51:31.813Z,89.48
2018-03-21T11:52:31.701Z,88.92
2018-03-21T11:53:31.658Z,87.73
2018-03-21T11:54:31.669Z,86.78
2018-03-21T11:55:31.579Z,86.11
2018-03-21T11:56:31.538Z,84.45
2018-03-21T11:57:31.505Z,84.26
2018-03-21T11:58:31.462Z,82.84
2018-03-21T11:59:31.449Z,82.93
2018-03-21T12:00:31.380Z,82.36
2018-03-21T12:01:31.354Z,81.79
2018-03-21T12:02:31.297Z,82.40
2018-03-21T12:03:31.276Z,80.41
2018-03-21T12:04:31.220Z,78.93
2018-03-21T12:05:31.252Z,78.17
2018-03-21T12:06:31.149Z,76.27
2018-03-21T12:07:31.121Z,75.32
2018-03-21T12:08:31.122Z,76.32
2018-03-21T12:09:31.044Z,76.23
2018-03-21T12:10:30.992Z,77.52
2018-03-21T12:11:30.996Z,78.38
2018-03-21T12:12:30.915Z,78.91
2018-03-21T12:13:30.868Z,79.10
2018-03-21T12:14:30.833Z,79.10
2018-03-21T12:15:30.794Z,79.63
2018-03-21T12:16:30.781Z,80.57
2018-03-21T12:17:30.747Z,81.24
2018-03-21T12:18:30.709Z,81.81
2018-03-21T12:19:30.641Z,82.47
2018-03-21T12:20:30.606Z,82.66
2018-03-21T12:21:30.565Z,82.37
2018-03-21T12:22:30.579Z,83.13
2018-03-21T12:23:30.496Z,82.79
2018-03-21T12:24:30.500Z,82.32
2018-03-21T12:25:30.432Z,81.27
2018-03-21T12:26:30.365Z,80.80
2018-03-21T12:27:30.338Z,80.14
2018-03-21T12:28:30.323Z,79.76
2018-03-21T12:29:30.308Z,79.57
2018-03-21T12:30:30.222Z,79.28
2018-03-21T12:31:30.174Z,79.76
2018-03-21T12:32:30.138Z,79.66
2018-03-21T12:33:30.096Z,79.66
2018-03-21T12:34:30.081Z,79.85
2018-03-21T12:35:30.020Z,79.76
2018-03-21T12:36:29.985Z,79.61
2018-03-21T12:37:29.940Z,79.23
2018-03-21T12:38:29.925Z,78.38
2018-03-21T12:39:29.889Z,77.43
2018-03-21T12:40:29.831Z,77.62
2018-03-21T12:41:29.783Z,78.00
2018-03-21T12:42:29.746Z,77.90
2018-03-21T12:43:29.707Z,78.00
2018-03-21T12:44:29.713Z,77.81
2018-03-21T12:45:29.629Z,78.09
2018-03-21T12:46:29.573Z,77.71
2018-03-21T12:47:29.581Z,77.90
2018-03-21T12:48:29.500Z,77.90
2018-03-21T12:49:29.522Z,78.38
2018-03-21T12:50:29.427Z,77.14
2018-03-21T12:51:29.386Z,76.39